LEVT Airport Information

Runway Information
Runway 04 Length 11483 ft width 148 ft
Elevation 1651 ft Threshold ft Heading 36
Runway 22 Length 11483 ft Width 148 ft
Elevation 1682 ft Threshold ft Heading 216
Airport Frequencies
Type GND Name GND Frequency 121.8 MHZ
Type TWR Name TWR Frequency 118.45 MHZ
Airport Navaids
Type VOR-DME Name Vitoria Frequency 112900 KHZ
Type VOR-DME Name Vitoria Frequency 116600 KHZ
Airport Weather Information & NOTAM
ADDS - METARS form results

(1846 UTC 03 July 2022)
Data provider http://aviationweather.gov/metar/data/
 
METAR text: LEVT 031830Z 02011KT 350V060 9999 BKN016 BKN026 16/13 Q1022
Conditions at: LEVT (VITORIA , ES) observed 1830 UTC 03 July 2022
Temperature: 16.0°C (61°F)
Dewpoint: 13.0°C (55°F) [RH = 82%]
Pressure (altimeter): 30.18 inches Hg (1022.0 mb)
Winds: from the NNE (20 degrees) at 13 MPH (11 knots; 5.7 m/s)
Visibility: 6 or more miles (10+ km)
Ceiling: 1600 feet AGL
Clouds: broken clouds at 1600 feet AGL
broken clouds at 2600 feet AGL
Weather: no significant weather observed at this time

METAR text: LEVT 031800Z 02008KT 9999 OVC015 16/13 Q1023
Conditions at: LEVT (VITORIA , ES) observed 1800 UTC 03 July 2022
Temperature: 16.0°C (61°F)
Dewpoint: 13.0°C (55°F) [RH = 82%]
Pressure (altimeter): 30.21 inches Hg (1023.0 mb)
Winds: from the NNE (20 degrees) at 9 MPH (8 knots; 4.1 m/s)
Visibility: 6 or more miles (10+ km)
Ceiling: 1500 feet AGL
Clouds: overcast cloud deck at 1500 feet AGL
Weather: no significant weather observed at this time

Forecast for: LEVT (VITORIA , ES)
Text: TAF LEVT 031700Z 0318/0418 01009KT 9999 FEW015 BKN020 TX23/0414Z TN13/0406Z
Forecast period: 1800 UTC 03 July 2022 to 1800 UTC 04 July 2022
Forecast type: FROM: standard forecast or significant change
Winds: from the N (10 degrees) at 10 MPH (9 knots; 4.6 m/s)
Visibility: 6 or more miles (10+ km)
Ceiling: 2000 feet AGL
Clouds: few clouds at 1500 feet AGL
broken clouds at 2000 feet AGL
Weather: no significant weather forecast for this period
Text: PROB40
Forecast period: 1800 to 2000 UTC 03 July 2022
Forecast type: TEMPORARY: The following changes expected for less than half the time period
Visibility: 1.86 miles (2.99 km)
Ceiling: at least 12,000 feet AGL
Clouds: scattered clouds at 4000 feet AGL
Weather: TSRA  (rain associated with thunderstorm(s))
Text: TEMPO 0318/0320 3000 TSRA SCT040CB
Forecast period: 1900 UTC 03 July 2022 to 0900 UTC 04 July 2022
Forecast type: TEMPORARY: The following changes expected for less than half the time period
Visibility: 1.86 miles (2.99 km)
Ceiling: 1000 feet AGL
Clouds: broken clouds at 1000 feet AGL
Weather: BR  (mist)
Text: TEMPO 0319/0409 3000 BR BKN010
Forecast period: 2000 UTC 03 July 2022 to 0700 UTC 04 July 2022
Forecast type: TEMPORARY: The following changes expected for less than half the time period
Visibility: 0.50 miles (0.80 km)
Ceiling: 200 feet AGL
Clouds: broken clouds at 200 feet AGL
Weather: BCFG  (patches of fog)